Time;durP1;ratioP1;P1;durP2;ratioP2;P2;SDS_P1;SDS_P2;PMS_P1;PMS_P2;Temp;Humidity;BMP_temperature;BMP_pressure;BME280_temperature;BME280_humidity;BME280_pressure;Samples;Min_cycle;Max_cycle;Signal;HPM_P1;HPM_P2
2023/07/30 00:00:15;;;;;;;1.80;1.65;;;21.10;60.00;;;;;;4985401;28;20050;-51
2023/07/30 00:02:44;;;;;;;1.83;1.67;;;21.10;60.00;;;;;;4986075;28;20047;-55
2023/07/30 00:05:11;;;;;;;3.05;1.70;;;21.00;60.00;;;;;;4986035;28;20058;-54
2023/07/30 00:07:38;;;;;;;1.63;1.42;;;21.00;60.00;;;;;;4986331;28;20050;-54
2023/07/30 00:10:07;;;;;;;1.83;1.30;;;21.00;60.00;;;;;;4984519;28;20157;-53
2023/07/30 00:12:34;;;;;;;8.70;1.70;;;21.00;60.10;;;;;;4983925;28;20046;-55
2023/07/30 00:15:01;;;;;;;1.88;1.50;;;21.00;60.10;;;;;;4984485;28;20054;-52
2023/07/30 00:17:28;;;;;;;4.00;1.63;;;21.00;60.00;;;;;;4985696;28;20054;-50
2023/07/30 00:19:57;;;;;;;1.80;1.30;;;21.00;60.00;;;;;;4984843;28;20066;-54
2023/07/30 00:22:24;;;;;;;2.00;1.48;;;20.90;60.00;;;;;;4984574;28;20062;-52
2023/07/30 00:24:51;;;;;;;2.70;1.45;;;21.00;59.90;;;;;;4986370;28;20062;-52
2023/07/30 00:27:18;;;;;;;4.65;1.77;;;21.00;59.90;;;;;;4984737;28;21008;-54
2023/07/30 00:29:46;;;;;;;2.90;1.70;;;20.90;59.90;;;;;;4985493;28;20528;-54
2023/07/30 00:32:15;;;;;;;2.20;1.65;;;20.90;59.90;;;;;;4985365;28;21093;-54
2023/07/30 00:34:42;;;;;;;2.75;1.50;;;20.90;60.20;;;;;;4986143;28;20598;-52
2023/07/30 00:37:11;;;;;;;2.45;1.60;;;20.90;59.90;;;;;;4984318;28;20061;-54
2023/07/30 00:39:38;;;;;;;4.55;1.50;;;20.90;59.90;;;;;;4985795;28;20055;-49
2023/07/30 00:42:06;;;;;;;1.70;1.30;;;20.90;59.80;;;;;;4983437;28;20051;-52
2023/07/30 00:44:33;;;;;;;1.88;1.50;;;20.90;59.80;;;;;;4984612;28;20414;-52
2023/07/30 00:47:01;;;;;;;1.80;1.52;;;20.80;59.80;;;;;;4985387;28;20054;-52
2023/07/30 00:49:28;;;;;;;5.03;1.70;;;20.80;59.90;;;;;;4984912;28;20054;-52
2023/07/30 00:51:56;;;;;;;2.70;1.50;;;20.80;59.90;;;;;;4984928;28;20061;-47
2023/07/30 00:54:26;;;;;;;4.10;1.63;;;20.90;60.00;;;;;;4984951;28;20074;-46
2023/07/30 00:56:54;;;;;;;2.50;1.45;;;20.90;60.00;;;;;;4983157;28;20424;-46
2023/07/30 00:59:22;;;;;;;3.15;1.55;;;20.80;60.50;;;;;;4982788;28;20057;-52
2023/07/30 01:01:51;;;;;;;2.50;1.50;;;20.80;59.90;;;;;;5002739;23;20046;-90
2023/07/30 01:04:19;;;;;;;2.03;1.50;;;20.80;60.00;;;;;;5000817;28;20057;-89
2023/07/30 01:06:47;;;;;;;2.42;1.40;;;20.80;60.00;;;;;;5000360;28;20054;-88
2023/07/30 01:09:14;;;;;;;2.38;1.42;;;20.90;60.00;;;;;;4998595;28;20147;-91
2023/07/30 01:11:45;;;;;;;1.85;1.40;;;20.80;60.00;;;;;;4998763;28;20041;-92
2023/07/30 01:14:15;;;;;;;2.00;1.50;;;20.90;60.20;;;;;;5001156;28;20053;-93
2023/07/30 01:16:42;;;;;;;2.20;1.60;;;20.80;60.20;;;;;;5000982;28;20057;-90
2023/07/30 01:19:21;;;;;;;7.30;1.60;;;20.80;60.20;;;;;;5002300;28;20227;-92
2023/07/30 01:21:50;;;;;;;2.78;1.88;;;20.80;60.10;;;;;;5000749;28;20064;-91
2023/07/30 01:24:17;;;;;;;3.92;1.42;;;20.80;60.00;;;;;;4999388;28;20497;-89
2023/07/30 01:26:50;;;;;;;2.90;1.70;;;20.80;60.10;;;;;;4998867;28;20057;-89
2023/07/30 01:29:24;;;;;;;7.88;2.00;;;20.80;60.00;;;;;;5000072;28;20053;-92
2023/07/30 01:31:57;;;;;;;3.13;1.73;;;20.80;59.80;;;;;;4999855;28;20057;-91
2023/07/30 01:34:28;;;;;;;5.32;1.63;;;20.80;59.60;;;;;;5000985;28;20060;-91
2023/07/30 01:36:58;;;;;;;3.85;2.17;;;20.80;59.50;;;;;;5000356;28;20409;-91
2023/07/30 01:39:27;;;;;;;5.68;1.75;;;20.80;59.90;;;;;;4999442;28;20104;-92
2023/07/30 01:41:55;;;;;;;1.50;1.40;;;20.70;59.40;;;;;;4998120;28;20053;-90
2023/07/30 01:44:22;;;;;;;2.90;1.58;;;20.70;59.40;;;;;;4998755;28;20045;-92
2023/07/30 01:46:50;;;;;;;3.47;1.38;;;20.60;59.40;;;;;;5000580;28;20144;-91
2023/07/30 01:49:17;;;;;;;4.05;1.98;;;20.60;59.50;;;;;;5001809;28;20050;-92
2023/07/30 01:51:46;;;;;;;2.47;1.80;;;20.60;59.50;;;;;;5000614;28;20437;-92
2023/07/30 01:54:14;;;;;;;2.35;1.30;;;20.50;59.50;;;;;;4998077;28;20470;-91
2023/07/30 01:56:42;;;;;;;1.92;1.52;;;20.60;59.70;;;;;;4999988;28;20057;-91
2023/07/30 01:59:09;;;;;;;2.53;1.40;;;20.60;59.70;;;;;;5001045;28;20505;-90
2023/07/30 02:01:37;;;;;;;5.97;1.80;;;20.60;59.60;;;;;;5000431;28;20425;-90
2023/07/30 02:04:05;;;;;;;3.50;1.42;;;20.60;59.60;;;;;;5001898;28;20058;-90
2023/07/30 02:06:32;;;;;;;4.47;1.60;;;20.60;59.50;;;;;;5001974;28;20060;-91
2023/07/30 02:09:00;;;;;;;2.00;1.40;;;20.60;59.50;;;;;;5000188;28;20064;-92
2023/07/30 02:11:28;;;;;;;3.10;1.60;;;20.60;59.50;;;;;;4999325;28;20050;-90
2023/07/30 02:13:56;;;;;;;3.33;1.95;;;20.60;59.40;;;;;;4999753;28;20053;-90
2023/07/30 02:16:23;;;;;;;6.15;1.42;;;20.60;59.40;;;;;;5000208;28;20536;-91
2023/07/30 02:18:50;;;;;;;4.80;1.80;;;20.60;59.40;;;;;;4999883;28;20516;-91
2023/07/30 02:21:18;;;;;;;2.58;1.50;;;20.60;59.30;;;;;;4999418;28;20528;-90
2023/07/30 02:23:45;;;;;;;4.68;1.60;;;20.60;59.50;;;;;;4994974;28;20050;-90
2023/07/30 02:26:13;;;;;;;3.08;1.60;;;20.70;59.50;;;;;;4999530;28;20049;-90
2023/07/30 02:28:41;;;;;;;2.55;1.65;;;20.70;59.40;;;;;;4999660;28;20053;-93
2023/07/30 02:31:09;;;;;;;1.90;1.50;;;20.70;59.30;;;;;;5001894;28;20062;-94
2023/07/30 02:33:37;;;;;;;2.42;1.23;;;20.80;59.30;;;;;;4998296;28;20490;-91
2023/07/30 02:36:05;;;;;;;2.97;1.33;;;20.70;59.20;;;;;;5001591;28;20050;-92
2023/07/30 02:38:32;;;;;;;2.63;1.60;;;20.80;59.40;;;;;;4997341;28;20661;-92
2023/07/30 02:41:00;;;;;;;1.88;1.27;;;20.70;59.50;;;;;;4994714;28;20057;-91
2023/07/30 02:43:28;;;;;;;4.60;1.55;;;20.80;59.60;;;;;;4997699;28;20154;-93
2023/07/30 02:45:57;;;;;;;3.38;1.95;;;20.80;59.60;;;;;;4999347;28;20058;-94
2023/07/30 02:48:24;;;;;;;4.40;1.58;;;20.80;59.60;;;;;;4997074;28;20114;-93
2023/07/30 02:50:52;;;;;;;3.35;1.52;;;20.80;59.30;;;;;;4996417;28;20058;-92
2023/07/30 02:53:20;;;;;;;2.15;1.35;;;20.80;59.20;;;;;;4996592;28;20050;-92
2023/07/30 02:55:48;;;;;;;4.97;1.60;;;20.80;59.30;;;;;;4996240;28;20050;-92
2023/07/30 02:58:15;;;;;;;2.10;1.38;;;20.80;59.40;;;;;;4998986;28;20061;-93
2023/07/30 03:00:43;;;;;;;3.67;1.40;;;20.80;59.40;;;;;;4995606;28;20054;-93
2023/07/30 03:03:15;;;;;;;3.38;1.88;;;20.90;59.50;;;;;;4996271;28;20057;-92
2023/07/30 03:05:45;;;;;;;4.40;1.60;;;20.90;59.50;;;;;;4996114;28;20395;-94
2023/07/30 03:08:13;;;;;;;5.38;1.42;;;20.90;59.50;;;;;;4997241;28;20061;-92
2023/07/30 03:10:41;;;;;;;2.72;1.40;;;20.90;59.50;;;;;;4995292;28;20617;-93
2023/07/30 03:13:09;;;;;;;2.45;1.40;;;20.90;59.50;;;;;;4998078;28;20052;-92
2023/07/30 03:15:37;;;;;;;1.80;1.33;;;20.90;59.50;;;;;;4997253;28;20058;-94
2023/07/30 03:18:05;;;;;;;2.38;1.50;;;20.90;59.50;;;;;;4998143;28;20133;-92
2023/07/30 03:20:38;;;;;;;2.90;1.70;;;20.90;59.50;;;;;;4995935;28;20488;-91
2023/07/30 03:23:06;;;;;;;3.35;1.55;;;20.90;59.40;;;;;;4977898;28;20054;-92
2023/07/30 03:25:34;;;;;;;5.28;1.70;;;20.90;59.30;;;;;;4992968;28;20070;-92
2023/07/30 03:28:01;;;;;;;5.00;1.98;;;20.90;59.10;;;;;;4979877;28;20054;-91
2023/07/30 03:30:29;;;;;;;2.10;1.42;;;20.90;59.00;;;;;;4981419;28;20413;-92
2023/07/30 03:32:56;;;;;;;3.72;1.52;;;20.90;59.00;;;;;;4981681;28;20993;-92
2023/07/30 03:35:24;;;;;;;3.55;1.63;;;20.90;58.90;;;;;;4979752;28;20054;-92
2023/07/30 03:37:53;;;;;;;3.15;1.75;;;20.80;58.70;;;;;;4979616;28;20062;-91
2023/07/30 03:40:22;;;;;;;3.80;1.70;;;20.80;58.40;;;;;;4979992;28;20049;-91
2023/07/30 03:42:50;;;;;;;3.47;1.75;;;20.80;58.30;;;;;;4978480;28;20058;-91
2023/07/30 03:45:18;;;;;;;2.38;1.27;;;20.80;58.20;;;;;;4979636;28;20413;-90
2023/07/30 03:47:45;;;;;;;2.63;1.23;;;20.80;58.20;;;;;;4980556;28;20050;-90
2023/07/30 03:50:13;;;;;;;4.18;1.88;;;20.80;58.30;;;;;;4981355;28;20150;-90
2023/07/30 03:52:40;;;;;;;2.90;1.70;;;20.80;58.30;;;;;;4980087;28;20426;-91
2023/07/30 03:55:13;;;;;;;4.85;1.60;;;20.80;58.40;;;;;;4980187;28;20497;-91
2023/07/30 03:57:40;;;;;;;2.10;1.45;;;20.80;58.50;;;;;;4978240;28;20062;-91
2023/07/30 04:00:09;;;;;;;5.40;1.77;;;20.80;58.50;;;;;;4979694;28;20054;-90
2023/07/30 04:02:37;;;;;;;3.75;1.67;;;20.80;58.50;;;;;;4980771;28;20053;-91
2023/07/30 04:05:05;;;;;;;4.45;2.25;;;20.80;58.30;;;;;;4980109;28;20496;-91
2023/07/30 04:07:33;;;;;;;2.38;1.75;;;20.80;58.30;;;;;;4978979;28;20053;-91
2023/07/30 04:10:04;;;;;;;4.03;1.48;;;20.80;58.40;;;;;;4978851;28;20065;-91
2023/07/30 04:12:33;;;;;;;4.68;1.83;;;20.80;58.50;;;;;;4976085;28;20046;-92
2023/07/30 04:15:00;;;;;;;2.88;1.48;;;20.80;58.60;;;;;;4977281;28;20062;-92
2023/07/30 04:17:28;;;;;;;2.47;1.60;;;20.80;58.70;;;;;;4977263;28;20050;-91
2023/07/30 04:19:55;;;;;;;3.13;1.80;;;20.80;58.70;;;;;;4978313;28;20486;-91
2023/07/30 04:22:23;;;;;;;4.05;1.92;;;20.80;58.70;;;;;;4980651;28;20058;-91
2023/07/30 04:24:51;;;;;;;4.18;2.03;;;20.80;58.60;;;;;;4978938;28;20598;-91
2023/07/30 04:27:21;;;;;;;4.18;1.60;;;20.90;58.50;;;;;;4978346;28;20200;-91
2023/07/30 04:29:50;;;;;;;5.85;1.88;;;20.80;58.20;;;;;;4980621;28;20090;-93
2023/07/30 04:32:18;;;;;;;7.10;1.70;;;20.80;58.00;;;;;;4981110;28;20046;-92
2023/07/30 04:34:46;;;;;;;4.68;1.90;;;20.80;57.80;;;;;;4978763;28;20061;-92
2023/07/30 04:37:13;;;;;;;3.17;1.95;;;20.80;57.70;;;;;;4979785;28;20062;-93
2023/07/30 04:39:41;;;;;;;6.30;2.00;;;20.80;57.70;;;;;;4981611;28;20054;-92
2023/07/30 04:42:09;;;;;;;4.95;1.90;;;20.80;57.70;;;;;;4977721;28;20077;-92
2023/07/30 04:44:38;;;;;;;3.35;1.67;;;20.80;57.70;;;;;;4986689;28;20051;-93
2023/07/30 04:47:10;;;;;;;4.65;1.50;;;20.70;57.70;;;;;;4978689;28;20064;-94
2023/07/30 04:49:40;;;;;;;2.58;1.75;;;20.70;57.60;;;;;;4984911;28;20062;-93
2023/07/30 04:52:08;;;;;;;3.97;1.40;;;20.70;57.70;;;;;;4990545;28;20051;-92
2023/07/30 04:54:43;;;;;;;5.15;2.08;;;20.70;57.80;;;;;;4985424;28;20061;-93
2023/07/30 04:57:10;;;;;;;9.85;1.92;;;20.60;57.90;;;;;;4984391;28;21031;-91
2023/07/30 04:59:38;;;;;;;4.45;1.70;;;20.70;57.80;;;;;;4985543;28;20058;-89
2023/07/30 05:02:06;;;;;;;4.78;1.85;;;20.70;57.80;;;;;;4986400;28;20058;-89
2023/07/30 05:04:35;;;;;;;6.22;2.67;;;20.60;57.50;;;;;;4984143;28;20065;-88
2023/07/30 05:07:02;;;;;;;4.82;2.35;;;20.60;57.10;;;;;;4983287;28;21010;-92
2023/07/30 05:09:29;;;;;;;7.78;2.17;;;20.60;56.80;;;;;;4985916;28;20055;-92
2023/07/30 05:11:57;;;;;;;5.28;2.13;;;20.50;56.70;;;;;;4983315;28;20054;-94
2023/07/30 05:14:25;;;;;;;5.07;1.90;;;20.50;56.90;;;;;;4982704;28;20422;-89
2023/07/30 05:16:52;;;;;;;5.88;1.60;;;20.50;57.10;;;;;;4983599;28;20062;-89
2023/07/30 05:19:20;;;;;;;6.18;1.90;;;20.50;57.30;;;;;;4982898;28;20050;-87
2023/07/30 05:21:51;;;;;;;2.83;1.50;;;20.50;57.30;;;;;;4983758;28;20058;-89
2023/07/30 05:24:19;;;;;;;7.45;2.88;;;20.50;57.50;;;;;;4983227;28;20061;-93
2023/07/30 05:26:46;;;;;;;3.50;1.92;;;20.50;57.50;;;;;;4987589;28;20050;-90
2023/07/30 05:29:13;;;;;;;5.43;1.77;;;20.50;57.30;;;;;;4990701;28;20054;-93
2023/07/30 05:31:41;;;;;;;4.82;2.30;;;20.50;57.30;;;;;;4982317;28;20046;-91
2023/07/30 05:34:08;;;;;;;18.65;8.48;;;20.50;57.10;;;;;;4983738;28;20046;-87
2023/07/30 05:36:35;;;;;;;22.20;3.25;;;20.50;57.70;;;;;;4988816;28;20054;-90
2023/07/30 05:42:02;;;;;;;5.53;2.03;;;20.50;56.50;;;;;;4978524;28;20057;-56
2023/07/30 05:44:29;;;;;;;3.25;1.55;;;20.50;56.30;;;;;;4982096;28;20491;-56
2023/07/30 05:46:56;;;;;;;6.55;2.20;;;20.50;56.00;;;;;;4982021;28;20065;-56
2023/07/30 05:49:24;;;;;;;5.70;1.73;;;20.40;55.90;;;;;;4983286;28;20054;-56
2023/07/30 05:51:51;;;;;;;2.95;1.80;;;20.40;56.00;;;;;;4983082;28;20498;-56
2023/07/30 05:54:18;;;;;;;4.47;1.83;;;20.40;56.10;;;;;;4983704;28;20516;-56
2023/07/30 05:56:46;;;;;;;4.68;1.83;;;20.40;55.90;;;;;;4981454;28;20050;-55
2023/07/30 05:59:14;;;;;;;5.15;2.13;;;20.30;55.60;;;;;;4981655;28;20057;-56
2023/07/30 06:01:41;;;;;;;4.85;1.70;;;20.30;55.80;;;;;;4980942;28;20058;-57
2023/07/30 06:04:09;;;;;;;7.05;1.88;;;20.30;56.10;;;;;;4981092;28;20049;-57
2023/07/30 06:06:36;;;;;;;5.70;1.73;;;20.20;56.40;;;;;;4983309;28;20077;-56
2023/07/30 06:09:03;;;;;;;7.15;1.60;;;20.30;56.60;;;;;;4981937;28;20058;-56
2023/07/30 06:11:31;;;;;;;7.65;1.83;;;20.30;56.50;;;;;;4980360;28;20061;-56
2023/07/30 06:13:58;;;;;;;4.97;2.03;;;20.30;56.60;;;;;;4983061;28;20053;-55
2023/07/30 06:16:26;;;;;;;4.80;1.63;;;20.40;56.50;;;;;;4983104;28;20409;-56
2023/07/30 06:18:54;;;;;;;7.53;1.60;;;20.30;56.40;;;;;;4980992;28;20076;-54
2023/07/30 06:21:21;;;;;;;5.20;1.83;;;20.40;56.60;;;;;;4981256;28;20148;-56
2023/07/30 06:23:48;;;;;;;8.70;1.90;;;20.40;56.60;;;;;;4981048;28;20402;-56
2023/07/30 06:26:15;;;;;;;4.93;2.00;;;20.40;56.30;;;;;;4977015;28;20054;-57
2023/07/30 06:28:42;;;;;;;5.55;1.90;;;20.40;56.30;;;;;;4981111;28;20474;-56
2023/07/30 06:31:10;;;;;;;4.97;1.40;;;20.50;56.40;;;;;;4979082;28;20061;-55
2023/07/30 06:33:39;;;;;;;3.38;1.40;;;20.50;56.60;;;;;;4981827;28;20057;-56
2023/07/30 06:36:06;;;;;;;6.65;1.70;;;20.50;57.20;;;;;;4982847;28;20489;-56
2023/07/30 06:38:33;;;;;;;8.63;1.85;;;20.50;56.70;;;;;;4983187;28;20050;-57
2023/07/30 06:41:00;;;;;;;6.30;1.77;;;20.50;56.60;;;;;;4979839;28;20146;-56
2023/07/30 06:43:27;;;;;;;3.80;1.73;;;20.60;56.70;;;;;;4980750;28;20824;-55
2023/07/30 06:45:55;;;;;;;6.68;1.98;;;20.50;56.80;;;;;;4982933;28;20081;-54
2023/07/30 06:48:22;;;;;;;7.82;2.35;;;20.50;56.90;;;;;;4982954;28;20118;-56
2023/07/30 06:50:51;;;;;;;7.47;2.25;;;20.50;56.90;;;;;;4981892;28;20663;-54
2023/07/30 06:53:18;;;;;;;9.95;2.55;;;20.50;56.90;;;;;;4982985;28;20513;-55
2023/07/30 06:55:45;;;;;;;4.88;2.10;;;20.50;56.80;;;;;;4981615;28;20064;-56
2023/07/30 06:58:13;;;;;;;9.13;2.13;;;20.50;57.00;;;;;;4983940;28;20058;-57
2023/07/30 07:00:41;;;;;;;5.20;1.95;;;20.50;57.10;;;;;;4984931;28;20050;-56
2023/07/30 07:03:08;;;;;;;7.20;2.30;;;20.40;57.10;;;;;;4987258;28;20061;-57
2023/07/30 07:05:35;;;;;;;4.88;2.10;;;20.40;57.20;;;;;;4984913;28;20058;-56
2023/07/30 07:08:05;;;;;;;4.97;2.00;;;20.30;57.30;;;;;;4987952;28;20418;-55
2023/07/30 07:10:32;;;;;;;8.50;2.58;;;20.30;57.50;;;;;;4986584;28;20054;-54
2023/07/30 07:13:00;;;;;;;8.70;2.00;;;20.20;57.50;;;;;;4984201;28;20609;-56
2023/07/30 07:15:27;;;;;;;5.00;1.85;;;20.20;57.60;;;;;;4986546;28;20051;-55
2023/07/30 07:17:54;;;;;;;4.00;1.70;;;20.20;57.90;;;;;;4986455;28;20054;-56
2023/07/30 07:20:21;;;;;;;8.13;1.83;;;20.10;57.80;;;;;;4986760;28;20062;-57
2023/07/30 07:22:49;;;;;;;5.22;2.20;;;20.10;57.80;;;;;;4985950;28;20506;-56
2023/07/30 07:25:19;;;;;;;7.45;2.47;;;20.10;57.90;;;;;;4983596;28;20046;-57
2023/07/30 07:27:46;;;;;;;8.27;2.20;;;20.00;58.10;;;;;;4985540;28;20054;-57
2023/07/30 07:30:13;;;;;;;6.53;2.28;;;20.00;58.30;;;;;;4986188;28;20050;-58
2023/07/30 07:32:41;;;;;;;6.90;2.08;;;19.90;58.60;;;;;;4984897;28;20054;-56
2023/07/30 07:35:09;;;;;;;5.38;2.10;;;19.90;58.60;;;;;;4985547;28;20077;-58
2023/07/30 07:37:36;;;;;;;4.78;1.58;;;19.80;58.70;;;;;;4984288;28;20057;-56
2023/07/30 07:40:04;;;;;;;7.13;2.33;;;19.80;58.80;;;;;;4985423;28;20058;-56
2023/07/30 07:42:33;;;;;;;4.57;1.65;;;19.80;58.90;;;;;;4983355;28;20050;-56
2023/07/30 07:45:00;;;;;;;4.03;1.50;;;19.80;59.10;;;;;;4986113;28;20054;-56
2023/07/30 07:47:27;;;;;;;4.38;1.77;;;19.80;59.20;;;;;;4984779;28;20062;-55
2023/07/30 07:49:55;;;;;;;6.90;2.20;;;19.80;59.30;;;;;;4984977;28;20062;-57
2023/07/30 07:52:22;;;;;;;6.32;1.85;;;19.80;59.50;;;;;;4985238;28;20058;-56
2023/07/30 07:54:49;;;;;;;7.93;2.75;;;19.80;59.70;;;;;;4984334;28;20057;-57
2023/07/30 07:57:16;;;;;;;10.15;2.25;;;19.70;59.80;;;;;;4982621;28;20058;-58
2023/07/30 07:59:45;;;;;;;8.48;1.65;;;19.80;59.90;;;;;;4986014;28;20523;-57
2023/07/30 08:02:13;;;;;;;5.40;1.65;;;19.80;60.00;;;;;;4985978;28;20073;-58
2023/07/30 08:04:40;;;;;;;3.33;1.67;;;19.90;60.00;;;;;;4983288;28;20053;-57
2023/07/30 08:07:08;;;;;;;14.35;6.25;;;19.90;59.90;;;;;;4984901;28;20065;-58
2023/07/30 08:09:35;;;;;;;5.20;2.38;;;19.90;59.90;;;;;;4982114;28;20050;-58
2023/07/30 08:12:03;;;;;;;5.15;1.77;;;19.90;59.90;;;;;;4983996;28;20058;-57
2023/07/30 08:14:31;;;;;;;7.70;1.98;;;19.90;60.00;;;;;;4984726;28;20046;-57
2023/07/30 08:16:59;;;;;;;3.45;1.45;;;20.00;60.00;;;;;;4981098;28;20050;-57
2023/07/30 08:19:27;;;;;;;7.85;1.73;;;20.00;60.10;;;;;;4984642;28;20549;-57
2023/07/30 08:21:56;;;;;;;4.78;1.77;;;20.00;60.00;;;;;;4983761;28;20058;-57
2023/07/30 08:24:23;;;;;;;4.82;1.90;;;20.10;60.20;;;;;;4983718;28;20054;-57
2023/07/30 08:26:50;;;;;;;4.95;1.65;;;20.10;60.20;;;;;;4983056;28;20470;-57
2023/07/30 08:29:18;;;;;;;7.07;1.50;;;20.10;60.30;;;;;;4984623;28;20057;-57
2023/07/30 08:31:45;;;;;;;5.28;2.00;;;20.20;60.40;;;;;;4985708;28;20046;-57
2023/07/30 08:34:14;;;;;;;6.78;2.03;;;20.10;60.20;;;;;;4984077;28;20426;-57
2023/07/30 08:36:41;;;;;;;4.53;1.88;;;20.20;60.20;;;;;;4983731;28;20065;-57
2023/07/30 08:39:09;;;;;;;3.60;1.90;;;20.20;60.10;;;;;;4984426;28;20417;-57
2023/07/30 08:41:36;;;;;;;4.80;1.60;;;20.30;60.20;;;;;;4982883;28;20050;-55
2023/07/30 08:44:05;;;;;;;4.75;1.70;;;20.20;60.10;;;;;;4985205;28;20065;-55
2023/07/30 08:46:32;;;;;;;5.40;1.90;;;20.30;61.00;;;;;;4984111;28;20414;-55
2023/07/30 08:48:59;;;;;;;4.38;1.88;;;20.30;60.30;;;;;;4984236;28;20061;-55
2023/07/30 08:51:29;;;;;;;9.05;2.85;;;20.30;60.00;;;;;;4982654;28;20054;-56
2023/07/30 08:53:58;;;;;;;3.17;1.77;;;20.40;59.90;;;;;;4984123;28;20540;-55
2023/07/30 08:56:26;;;;;;;5.28;1.63;;;20.40;59.90;;;;;;4980522;28;20061;-56
2023/07/30 08:58:57;;;;;;;4.00;1.73;;;20.50;60.00;;;;;;4983393;28;20057;-56
2023/07/30 09:01:30;;;;;;;4.88;1.55;;;20.50;60.10;;;;;;4984780;28;20054;-57
2023/07/30 09:04:01;;;;;;;4.38;1.27;;;20.50;60.10;;;;;;4983623;28;20061;-54
2023/07/30 09:06:30;;;;;;;6.07;1.90;;;20.60;59.90;;;;;;4984980;28;21376;-54
2023/07/30 09:08:57;;;;;;;9.00;2.22;;;20.60;59.50;;;;;;4984571;28;20161;-55
2023/07/30 09:11:27;;;;;;;8.15;1.90;;;20.70;59.50;;;;;;4984733;28;20517;-54
2023/07/30 09:13:56;;;;;;;7.60;1.88;;;20.70;59.40;;;;;;4985008;28;20072;-57
2023/07/30 09:16:26;;;;;;;4.32;1.40;;;20.70;59.50;;;;;;4983977;28;20608;-55
2023/07/30 09:18:54;;;;;;;4.53;1.50;;;20.80;59.70;;;;;;4984524;28;20058;-56
2023/07/30 09:21:32;;;;;;;6.05;1.60;;;20.80;59.90;;;;;;4983566;28;20084;-56
2023/07/30 09:24:05;;;;;;;6.05;1.77;;;20.80;59.90;;;;;;4983123;28;20050;-55
2023/07/30 09:26:42;;;;;;;4.93;1.65;;;20.90;59.70;;;;;;4982992;28;20054;-53
2023/07/30 09:29:10;;;;;;;5.03;1.63;;;21.00;59.70;;;;;;4983984;28;20524;-55
2023/07/30 09:31:53;;;;;;;12.73;1.92;;;21.00;59.70;;;;;;4984458;28;20050;-55
2023/07/30 09:34:22;;;;;;;11.60;2.17;;;21.10;59.40;;;;;;4983674;28;20058;-54
2023/07/30 09:36:53;;;;;;;9.00;1.83;;;21.10;59.30;;;;;;4983672;28;20454;-53
2023/07/30 09:39:22;;;;;;;9.63;1.95;;;21.10;59.20;;;;;;4984140;28;20050;-56
2023/07/30 09:41:51;;;;;;;10.57;2.60;;;21.10;58.80;;;;;;4981691;28;20062;-57
2023/07/30 09:44:19;;;;;;;8.90;2.72;;;21.20;58.70;;;;;;4985323;28;20497;-58
2023/07/30 09:46:48;;;;;;;11.35;2.42;;;21.20;57.50;;;;;;4983740;28;20061;-52
2023/07/30 09:49:16;;;;;;;6.68;1.73;;;21.10;57.40;;;;;;4983795;28;20050;-53
2023/07/30 09:51:43;;;;;;;10.02;2.25;;;21.20;57.60;;;;;;4983920;28;20494;-56
2023/07/30 09:54:14;;;;;;;8.10;1.98;;;21.20;57.20;;;;;;4982033;28;20054;-55
2023/07/30 09:56:43;;;;;;;12.40;2.38;;;21.20;57.10;;;;;;4981533;28;20046;-53
2023/07/30 09:59:10;;;;;;;8.02;2.13;;;21.10;57.50;;;;;;4983178;28;20399;-57
2023/07/30 10:01:42;;;;;;;6.22;1.80;;;21.20;57.60;;;;;;4986295;28;20050;-57
2023/07/30 10:04:10;;;;;;;7.35;1.80;;;21.20;57.60;;;;;;4983371;28;20050;-58
2023/07/30 10:06:42;;;;;;;16.17;2.50;;;21.20;57.50;;;;;;4983347;28;20486;-58
2023/07/30 10:09:12;;;;;;;10.88;1.80;;;21.20;57.40;;;;;;4982494;28;20403;-58
2023/07/30 10:11:42;;;;;;;7.90;1.88;;;21.20;57.50;;;;;;4981997;28;20513;-54
2023/07/30 10:14:10;;;;;;;14.63;2.50;;;21.20;57.10;;;;;;4983035;28;20406;-52
2023/07/30 10:16:37;;;;;;;10.60;2.28;;;21.20;56.70;;;;;;4982958;28;20057;-56
2023/07/30 10:19:05;;;;;;;11.68;2.60;;;21.20;56.50;;;;;;4984225;28;20410;-53
2023/07/30 10:21:34;;;;;;;10.50;2.03;;;21.20;55.60;;;;;;4983435;28;20464;-55
2023/07/30 10:24:02;;;;;;;4.10;1.60;;;21.20;55.90;;;;;;4983033;28;20084;-58
2023/07/30 10:26:32;;;;;;;9.40;2.25;;;21.20;55.90;;;;;;4981252;28;20051;-58
2023/07/30 10:29:12;;;;;;;8.13;1.60;;;21.30;55.70;;;;;;4983307;28;20065;-57
2023/07/30 10:31:40;;;;;;;8.45;2.00;;;21.30;55.30;;;;;;4982977;28;20061;-56
2023/07/30 10:34:09;;;;;;;7.47;1.58;;;21.30;55.50;;;;;;4982955;28;20474;-57
2023/07/30 10:36:42;;;;;;;6.40;1.73;;;21.30;55.30;;;;;;4984257;28;20050;-56
2023/07/30 10:39:14;;;;;;;8.85;1.75;;;21.40;55.40;;;;;;4983379;28;20169;-56
2023/07/30 10:41:44;;;;;;;6.82;1.65;;;21.40;55.20;;;;;;4980272;28;20065;-56
2023/07/30 10:44:26;;;;;;;8.65;2.38;;;21.40;54.00;;;;;;4983126;28;20058;-56
2023/07/30 10:46:54;;;;;;;13.15;2.13;;;21.50;54.30;;;;;;4982896;28;20050;-53
2023/07/30 10:49:21;;;;;;;10.68;2.25;;;21.50;55.00;;;;;;4981851;28;20042;-56
2023/07/30 10:51:48;;;;;;;9.43;1.52;;;21.60;54.70;;;;;;4983929;28;20057;-57
2023/07/30 10:54:16;;;;;;;6.80;1.35;;;21.70;54.30;;;;;;4981830;28;20054;-57
2023/07/30 10:56:45;;;;;;;6.43;1.40;;;21.70;53.80;;;;;;4980468;28;20065;-57
2023/07/30 10:59:13;;;;;;;9.15;1.60;;;21.80;53.70;;;;;;4982842;28;20059;-57
2023/07/30 11:01:42;;;;;;;7.32;1.40;;;21.90;53.80;;;;;;4983077;28;21001;-57
2023/07/30 11:04:11;;;;;;;7.78;1.80;;;21.90;53.60;;;;;;4982683;28;20065;-56
2023/07/30 11:06:39;;;;;;;6.82;1.70;;;21.90;53.30;;;;;;4983182;28;20402;-57
2023/07/30 11:09:06;;;;;;;7.13;1.60;;;22.00;53.10;;;;;;4983486;28;20058;-56
2023/07/30 11:11:34;;;;;;;7.75;1.67;;;22.00;52.70;;;;;;4981264;28;20061;-58
2023/07/30 11:14:03;;;;;;;5.68;1.30;;;22.00;52.40;;;;;;4982612;28;20520;-58
2023/07/30 11:16:31;;;;;;;6.30;1.73;;;22.10;53.00;;;;;;4981834;28;20057;-58
2023/07/30 11:18:58;;;;;;;10.77;1.98;;;22.10;52.40;;;;;;4982160;28;20426;-57
2023/07/30 11:21:25;;;;;;;9.20;1.70;;;22.10;51.50;;;;;;4981806;28;20050;-57
2023/07/30 11:23:53;;;;;;;6.03;1.33;;;22.10;51.70;;;;;;4982327;28;20058;-55
2023/07/30 11:26:21;;;;;;;9.15;1.83;;;22.10;51.20;;;;;;4982149;28;20057;-57
2023/07/30 11:28:48;;;;;;;5.65;1.40;;;22.20;51.50;;;;;;4982937;28;20054;-58
2023/07/30 11:31:20;;;;;;;5.95;1.60;;;22.20;51.70;;;;;;4982294;28;20070;-58
2023/07/30 11:33:49;;;;;;;8.98;2.03;;;22.20;51.70;;;;;;4982228;28;20399;-58
2023/07/30 11:36:18;;;;;;;7.28;1.58;;;22.30;52.20;;;;;;4981548;28;20054;-57
2023/07/30 11:38:46;;;;;;;5.80;1.50;;;22.30;51.60;;;;;;4981251;28;20118;-56
2023/07/30 11:41:14;;;;;;;5.70;1.67;;;22.40;51.10;;;;;;4980952;28;20058;-56
2023/07/30 11:43:43;;;;;;;4.90;1.38;;;22.50;50.80;;;;;;4982959;28;20050;-58
2023/07/30 11:46:12;;;;;;;8.85;1.30;;;22.50;50.80;;;;;;4983889;28;20073;-56
2023/07/30 11:48:43;;;;;;;5.32;1.40;;;22.60;50.80;;;;;;4985977;28;20057;-55
2023/07/30 11:51:21;;;;;;;7.07;1.33;;;22.60;50.40;;;;;;4985852;28;20088;-54
2023/07/30 11:53:50;;;;;;;7.00;1.55;;;22.60;49.90;;;;;;4985103;28;20066;-58
2023/07/30 11:56:19;;;;;;;6.65;1.40;;;22.70;50.00;;;;;;4984048;28;20656;-56
2023/07/30 11:58:47;;;;;;;5.38;1.52;;;22.70;49.80;;;;;;4985464;28;20073;-58
2023/07/30 12:01:15;;;;;;;8.13;1.20;;;22.70;48.50;;;;;;4987275;28;20069;-58
2023/07/30 12:03:44;;;;;;;5.43;1.08;;;22.80;48.80;;;;;;4986002;28;20050;-56
2023/07/30 12:06:12;;;;;;;3.65;1.05;;;22.80;49.20;;;;;;4984357;28;20054;-55
2023/07/30 12:08:40;;;;;;;4.45;1.13;;;22.80;49.60;;;;;;4985048;28;20077;-55
2023/07/30 12:11:08;;;;;;;3.28;1.50;;;22.90;49.60;;;;;;4982532;28;20081;-56
2023/07/30 12:13:43;;;;;;;5.50;1.23;;;23.00;49.20;;;;;;4984949;28;20486;-55
2023/07/30 12:16:11;;;;;;;6.03;1.13;;;23.00;49.00;;;;;;4984242;28;20053;-58
2023/07/30 12:18:39;;;;;;;3.75;1.20;;;23.10;49.30;;;;;;4986073;28;20370;-57
2023/07/30 12:21:10;;;;;;;5.30;1.30;;;23.10;48.90;;;;;;4983639;28;20050;-58
2023/07/30 12:23:38;;;;;;;3.58;1.08;;;23.10;48.70;;;;;;4984841;28;20058;-57
2023/07/30 12:26:05;;;;;;;3.00;1.20;;;23.10;48.60;;;;;;4983641;28;20061;-58
2023/07/30 12:28:33;;;;;;;12.25;6.20;;;23.20;48.60;;;;;;4985224;28;20046;-56
2023/07/30 12:31:01;;;;;;;20.25;9.38;;;23.20;48.90;;;;;;4982813;28;20414;-57
2023/07/30 12:33:27;;;;;;;8.55;3.25;;;23.20;49.10;;;;;;4984912;28;20544;-56
2023/07/30 12:35:54;;;;;;;4.97;1.73;;;23.30;48.80;;;;;;4984903;28;20433;-56
2023/07/30 12:38:23;;;;;;;8.82;1.88;;;23.30;48.80;;;;;;4983437;28;20054;-57
2023/07/30 12:40:50;;;;;;;5.40;1.20;;;23.40;48.60;;;;;;4982882;28;20058;-57
2023/07/30 12:43:20;;;;;;;3.60;1.13;;;23.40;48.70;;;;;;4983840;28;20069;-58
2023/07/30 12:45:47;;;;;;;5.20;1.17;;;23.50;48.60;;;;;;4975195;28;20061;-59
2023/07/30 12:48:15;;;;;;;4.28;0.98;;;23.60;48.30;;;;;;4983440;28;20475;-59
2023/07/30 12:50:42;;;;;;;3.90;1.27;;;23.60;48.00;;;;;;4984741;28;20076;-59
2023/07/30 12:53:09;;;;;;;2.35;0.85;;;23.60;47.30;;;;;;4984726;28;20433;-56